Airfield :
LOGIN :

Register | Disclaimer

   EN    FR    IT 

 










Legend :    VFR   Marginal VFR   IFR   Intensive IFR   Very Intensive IFR
Visi :
Ceiling :
>= 8 km
>= 3000ft
5 to 8 km
1000 to 3000 ft
1500m to 5 km
500 to 1000 ft
800 to 1500m
200 to 500 ft
< 800m
< 200 ft
Symbols :   Thunderstorms  Fog  Heavy snow  Heavy precipitations  Wind > 20 kt
SIGMETs :     Misc.  Thunderstorms  Icing  Turbulence  Mountain Waves  Volcanic Ashes







- Airport Elevation : 330 ft
- IATA code : LVA
- Download approach charts


LFOV - Laval-Entrammes

CURRENT METAR :
  • 260930Z AUTO 05013KT CAVOK 28/21 Q1019

EXPIRED METARs :
  • 260900Z AUTO 04013KT 010V070 CAVOK 27/21 Q1020
  • 260830Z AUTO 02010KT 350V060 CAVOK 26/20 Q1020
  • 260800Z AUTO 02010KT CAVOK 24/20 Q1020
  • 260730Z AUTO 01008KT CAVOK 23/19 Q1021
  • 260700Z AUTO 36007KT CAVOK 22/18 Q1021

TAF N/A
No reported NOTAMs for that airfield.
2 SIGMETs reported for the Brest FIR (LFRR) :
 
SIGMET 7  cancelation
LFRR SIGMET 8 VALID 260905/261000 LFPW
LFRR BREST FIR/UIR CNL SIGMET 7 260800/261000=
SIGMET 7  CANCELED :
Embedded thunderstorms
LFRR SIGMET 7 VALID 260800/261000 LFPW
LFRR BREST FIR/UIR EMBD TS OBS WI N4515 W00800 - N4545 W00800 - N4900 W00430 - N4830 W00300 - N4715 W00445 - N4515 W00800 TOP FL360 MOV N 20KT NC=



MET'MAP, your aeronautical weather chart ! - Copyright ORBIFLY December 2007 - Disclaimer

ORBIFLY MET'MAP TEAM :

Programming & Development : Alexandra Zaïnal
Concept & Development : Baudouin d'Aumeries
Co-Development & Prog : Marc-Olivier Méhu
Technical & hardware support : Manuel Goepfert

Contact : metmap@orbifly.com




SOURCES & CREDITS :

   NOAA